Time;durP1;ratioP1;P1;durP2;ratioP2;P2;SDS_P1;SDS_P2;PMS_P1;PMS_P2;Temp;Humidity;BMP_temperature;BMP_pressure;BME280_temperature;BME280_humidity;BME280_pressure;Samples;Min_cycle;Max_cycle;Signal;HPM_P1;HPM_P2
2023/09/12 00:00:55;;;;;;;6.40;4.30;;;;;;;;;;5100545;28;20473;-73
2023/09/12 00:03:21;;;;;;;6.00;4.93;;;;;;;;;;5098304;28;20047;-72
2023/09/12 00:05:53;;;;;;;6.88;4.90;;;;;;;;;;5094209;28;20020;-72
2023/09/12 00:08:18;;;;;;;6.05;4.18;;;;;;;;;;5094057;28;20027;-75
2023/09/12 00:10:43;;;;;;;5.88;4.20;;;;;;;;;;5101665;28;20016;-72
2023/09/12 00:13:09;;;;;;;5.68;3.92;;;;;;;;;;5103224;28;20019;-73
2023/09/12 00:15:34;;;;;;;8.98;4.78;;;;;;;;;;5097368;28;20034;-72
2023/09/12 00:17:59;;;;;;;6.65;4.78;;;;;;;;;;5102938;28;20102;-71
2023/09/12 00:20:25;;;;;;;6.85;4.55;;;;;;;;;;5104333;28;20664;-72
2023/09/12 00:22:50;;;;;;;8.07;4.57;;;;;;;;;;5101296;28;20059;-72
2023/09/12 00:25:16;;;;;;;8.15;4.18;;;;;;;;;;5102233;28;20102;-72
2023/09/12 00:27:41;;;;;;;5.07;4.57;;;;;;;;;;5103639;28;20031;-73
2023/09/12 00:30:06;;;;;;;6.28;4.05;;;;;;;;;;5102769;28;20012;-73
2023/09/12 00:32:32;;;;;;;4.88;4.07;;;;;;;;;;5102457;28;20031;-71
2023/09/12 00:34:57;;;;;;;8.88;5.00;;;;;;;;;;5092822;28;20466;-73
2023/09/12 00:37:22;;;;;;;12.45;5.00;;;;;;;;;;5100700;28;20383;-72
2023/09/12 00:39:48;;;;;;;7.28;4.85;;;;;;;;;;5100883;28;20695;-75
2023/09/12 00:42:13;;;;;;;5.43;4.40;;;;;;;;;;5101883;28;20027;-73
2023/09/12 00:44:38;;;;;;;6.43;4.53;;;;;;;;;;5102201;28;20097;-76
2023/09/12 00:47:04;;;;;;;6.57;4.38;;;;;;;;;;5104238;28;20650;-73
2023/09/12 00:49:30;;;;;;;6.57;4.80;;;;;;;;;;5102419;28;20342;-72
2023/09/12 00:51:56;;;;;;;7.70;5.07;;;;;;;;;;5093200;28;20027;-72
2023/09/12 00:54:22;;;;;;;6.72;4.30;;;;;;;;;;5093709;28;20346;-76
2023/09/12 00:56:47;;;;;;;4.65;4.20;;;;;;;;;;5101182;28;20028;-74
2023/09/12 00:59:14;;;;;;;6.40;4.22;;;;;;;;;;5102222;28;20017;-72
2023/09/12 01:01:39;;;;;;;5.25;4.47;;;;;;;;;;5100870;28;20035;-72
2023/09/12 01:04:04;;;;;;;5.65;4.47;;;;;;;;;;5099567;28;20024;-72
2023/09/12 01:06:31;;;;;;;5.10;4.60;;;;;;;;;;5099437;28;20118;-72
2023/09/12 01:08:57;;;;;;;7.40;4.57;;;;;;;;;;5101591;28;20023;-74
2023/09/12 01:11:22;;;;;;;5.25;4.55;;;;;;;;;;5097502;28;20042;-73
2023/09/12 01:13:48;;;;;;;6.65;4.97;;;;;;;;;;5097085;28;20111;-76
2023/09/12 01:16:13;;;;;;;7.95;4.55;;;;;;;;;;5102284;28;20035;-73
2023/09/12 01:18:39;;;;;;;6.22;5.07;;;;;;;;;;5101075;28;20461;-72
2023/09/12 01:21:16;;;;;;;6.00;4.10;;;;;;;;;;5097622;28;20440;-72
2023/09/12 01:24:11;;;;;;;5.35;4.13;;;;;;;;;;5088615;28;20032;-72
2023/09/12 01:26:46;;;;;;;4.97;3.92;;;;;;;;;;5089493;28;20031;-71
2023/09/12 01:29:13;;;;;;;5.72;4.40;;;;;;;;;;5088154;28;20019;-72
2023/09/12 01:31:39;;;;;;;5.28;4.57;;;;;;;;;;5093421;28;23527;-70
2023/09/12 01:34:09;;;;;;;7.00;4.40;;;;;;;;;;5098399;28;20038;-72
2023/09/12 01:36:34;;;;;;;6.80;4.50;;;;;;;;;;5099310;28;20024;-72
2023/09/12 01:39:00;;;;;;;8.77;4.60;;;;;;;;;;5101287;28;20101;-71
2023/09/12 01:41:26;;;;;;;6.25;5.00;;;;;;;;;;5099199;28;20126;-71
2023/09/12 01:43:52;;;;;;;7.63;4.80;;;;;;;;;;5101110;28;20027;-71
2023/09/12 01:46:18;;;;;;;6.70;4.80;;;;;;;;;;5100018;28;20027;-73
2023/09/12 01:48:44;;;;;;;5.22;4.55;;;;;;;;;;5101805;28;20424;-72
2023/09/12 01:51:09;;;;;;;5.28;4.47;;;;;;;;;;5095802;28;20042;-73
2023/09/12 01:53:36;;;;;;;5.90;4.75;;;;;;;;;;5094652;28;20039;-75
2023/09/12 01:56:01;;;;;;;7.85;5.25;;;;;;;;;;5099320;28;20080;-73
2023/09/12 01:58:26;;;;;;;6.30;4.50;;;;;;;;;;5090396;28;20059;-72
2023/09/12 02:00:52;;;;;;;4.80;4.40;;;;;;;;;;5090076;28;20028;-74
2023/09/12 02:03:17;;;;;;;5.60;4.50;;;;;;;;;;5096221;28;20386;-72
2023/09/12 02:05:42;;;;;;;5.93;4.63;;;;;;;;;;5089284;28;20031;-71
2023/09/12 02:08:08;;;;;;;5.88;4.40;;;;;;;;;;5101999;28;20456;-71
2023/09/12 02:10:33;;;;;;;6.13;5.15;;;;;;;;;;5102089;28;20050;-72
2023/09/12 02:12:58;;;;;;;8.70;4.68;;;;;;;;;;5096327;28;20046;-71
2023/09/12 02:15:24;;;;;;;6.03;5.32;;;;;;;;;;5088863;28;20421;-71
2023/09/12 02:17:52;;;;;;;7.88;4.90;;;;;;;;;;5097652;28;20032;-71
2023/09/12 02:20:18;;;;;;;5.90;4.90;;;;;;;;;;5101439;28;20992;-71
2023/09/12 02:22:45;;;;;;;5.95;4.53;;;;;;;;;;5100159;28;20031;-72
2023/09/12 02:25:10;;;;;;;6.88;4.68;;;;;;;;;;5093096;28;20019;-72
2023/09/12 02:27:35;;;;;;;6.70;4.68;;;;;;;;;;5099910;28;20355;-75
2023/09/12 02:30:02;;;;;;;5.22;4.32;;;;;;;;;;5099309;28;20094;-73
2023/09/12 02:32:28;;;;;;;4.93;4.47;;;;;;;;;;5100896;28;20026;-72
2023/09/12 02:34:53;;;;;;;5.60;4.55;;;;;;;;;;5101507;28;20027;-73
2023/09/12 02:37:19;;;;;;;6.03;4.20;;;;;;;;;;5096075;28;20016;-72
2023/09/12 02:39:44;;;;;;;5.55;4.40;;;;;;;;;;5087971;28;20397;-73
2023/09/12 02:42:10;;;;;;;5.38;4.30;;;;;;;;;;5086248;28;20126;-75
2023/09/12 02:44:36;;;;;;;4.95;4.28;;;;;;;;;;5091626;28;20036;-72
2023/09/12 02:47:03;;;;;;;5.55;4.70;;;;;;;;;;5093740;28;20073;-75
2023/09/12 02:49:28;;;;;;;6.57;4.50;;;;;;;;;;5092495;28;20023;-72
2023/09/12 02:51:53;;;;;;;5.68;4.55;;;;;;;;;;5096800;28;20097;-72
2023/09/12 02:54:19;;;;;;;6.10;4.75;;;;;;;;;;5091080;28;20024;-71
2023/09/12 02:56:44;;;;;;;5.03;4.53;;;;;;;;;;5096043;28;20023;-71
2023/09/12 02:59:09;;;;;;;5.43;4.90;;;;;;;;;;5094576;28;20487;-74
2023/09/12 03:01:35;;;;;;;6.82;4.70;;;;;;;;;;5100458;28;20031;-73
2023/09/12 03:04:00;;;;;;;6.50;4.60;;;;;;;;;;5094903;28;20058;-74
2023/09/12 03:06:25;;;;;;;7.20;4.15;;;;;;;;;;5099909;28;20365;-75
2023/09/12 03:08:51;;;;;;;8.73;5.10;;;;;;;;;;5097919;28;20478;-75
2023/09/12 03:11:16;;;;;;;6.25;4.78;;;;;;;;;;5101337;28;20339;-72
2023/09/12 03:13:42;;;;;;;4.93;4.38;;;;;;;;;;5092284;28;20024;-75
2023/09/12 03:16:13;;;;;;;5.18;4.65;;;;;;;;;;5098456;28;20027;-71
2023/09/12 03:18:39;;;;;;;5.63;4.75;;;;;;;;;;5099331;28;20430;-73
2023/09/12 03:21:05;;;;;;;4.63;4.22;;;;;;;;;;5092973;28;20027;-75
2023/09/12 03:23:30;;;;;;;9.90;4.38;;;;;;;;;;5087992;28;20069;-71
2023/09/12 03:25:59;;;;;;;7.18;4.70;;;;;;;;;;5099125;28;20015;-72
2023/09/12 03:28:24;;;;;;;7.47;4.78;;;;;;;;;;5104851;28;20095;-75
2023/09/12 03:30:50;;;;;;;5.05;4.35;;;;;;;;;;5103333;28;20114;-72
2023/09/12 03:33:15;;;;;;;5.35;4.60;;;;;;;;;;5104043;28;20067;-72
2023/09/12 03:35:42;;;;;;;5.72;4.60;;;;;;;;;;5104024;28;20107;-75
2023/09/12 03:38:08;;;;;;;6.28;4.72;;;;;;;;;;5103019;28;20063;-72
2023/09/12 03:40:33;;;;;;;7.85;5.18;;;;;;;;;;5100815;28;20079;-72
2023/09/12 03:42:58;;;;;;;7.88;5.20;;;;;;;;;;5094771;28;20059;-71
2023/09/12 03:45:24;;;;;;;10.10;5.38;;;;;;;;;;5101359;28;20423;-72
2023/09/12 03:47:49;;;;;;;8.70;4.82;;;;;;;;;;5104538;28;20099;-73
2023/09/12 03:50:14;;;;;;;6.68;5.07;;;;;;;;;;5101941;28;20080;-75
2023/09/12 03:52:40;;;;;;;6.07;5.10;;;;;;;;;;5098925;28;20031;-73
2023/09/12 03:55:06;;;;;;;8.82;5.75;;;;;;;;;;5095905;28;20035;-76
2023/09/12 03:57:31;;;;;;;6.07;5.28;;;;;;;;;;5095802;28;20031;-73
2023/09/12 03:59:56;;;;;;;8.85;5.75;;;;;;;;;;5098761;28;20110;-72
2023/09/12 04:02:22;;;;;;;7.68;5.25;;;;;;;;;;5101406;28;20107;-72
2023/09/12 04:04:47;;;;;;;7.57;5.30;;;;;;;;;;5093751;28;20106;-72
2023/09/12 04:07:13;;;;;;;6.20;4.80;;;;;;;;;;5099046;28;20388;-73
2023/09/12 04:09:38;;;;;;;7.13;5.20;;;;;;;;;;5089870;27;20043;-75
2023/09/12 04:12:03;;;;;;;8.43;5.53;;;;;;;;;;5099522;28;20043;-73
2023/09/12 04:14:29;;;;;;;7.38;5.53;;;;;;;;;;5104165;28;20034;-74
2023/09/12 04:16:54;;;;;;;9.25;5.55;;;;;;;;;;5102596;27;20035;-73
2023/09/12 04:19:19;;;;;;;7.20;4.97;;;;;;;;;;5102915;28;20057;-76
2023/09/12 04:21:45;;;;;;;7.05;5.05;;;;;;;;;;5098977;28;20443;-72
2023/09/12 04:24:10;;;;;;;6.68;4.85;;;;;;;;;;5102149;28;20080;-73
2023/09/12 04:26:36;;;;;;;10.52;5.75;;;;;;;;;;5096781;28;20028;-73
2023/09/12 04:29:01;;;;;;;7.22;5.50;;;;;;;;;;5084098;28;20032;-72
2023/09/12 04:31:26;;;;;;;9.05;5.82;;;;;;;;;;5090898;28;20041;-71
2023/09/12 04:33:52;;;;;;;9.18;7.82;;;;;;;;;;5099993;28;21050;-71
2023/09/12 04:36:18;;;;;;;8.75;7.13;;;;;;;;;;5102704;28;20027;-71
2023/09/12 04:38:43;;;;;;;8.65;5.60;;;;;;;;;;5098268;27;20101;-72
2023/09/12 04:41:14;;;;;;;7.20;6.18;;;;;;;;;;5092291;27;20098;-76
2023/09/12 04:43:39;;;;;;;6.20;5.60;;;;;;;;;;5086138;28;20077;-72
2023/09/12 04:46:05;;;;;;;6.70;5.43;;;;;;;;;;5088784;27;20023;-75
2023/09/12 04:48:30;;;;;;;14.73;6.40;;;;;;;;;;5082534;28;20604;-75
2023/09/12 04:50:56;;;;;;;10.35;6.43;;;;;;;;;;5080196;28;20027;-72
2023/09/12 04:53:21;;;;;;;7.63;5.93;;;;;;;;;;5095335;28;20031;-73
2023/09/12 04:55:47;;;;;;;6.10;5.43;;;;;;;;;;5099782;28;20015;-71
2023/09/12 04:58:12;;;;;;;6.18;5.05;;;;;;;;;;5101358;28;20024;-72
2023/09/12 05:00:39;;;;;;;10.95;5.57;;;;;;;;;;5101552;28;20019;-72
2023/09/12 05:03:04;;;;;;;9.30;4.97;;;;;;;;;;5102010;28;20035;-70
2023/09/12 05:05:29;;;;;;;6.47;5.18;;;;;;;;;;5088699;28;20023;-75
2023/09/12 05:07:55;;;;;;;6.05;5.22;;;;;;;;;;5094817;28;20043;-71
2023/09/12 05:10:20;;;;;;;5.07;4.60;;;;;;;;;;5099721;28;20028;-72
2023/09/12 05:12:45;;;;;;;8.20;5.45;;;;;;;;;;5102783;28;20102;-72
2023/09/12 05:15:11;;;;;;;6.88;5.50;;;;;;;;;;5101919;28;20028;-73
2023/09/12 05:17:36;;;;;;;6.38;5.03;;;;;;;;;;5102427;28;20102;-72
2023/09/12 05:20:02;;;;;;;10.70;5.63;;;;;;;;;;5101831;28;20063;-74
2023/09/12 05:22:28;;;;;;;7.78;4.70;;;;;;;;;;5101428;27;20106;-74
2023/09/12 05:24:54;;;;;;;7.72;5.07;;;;;;;;;;5101335;28;20053;-73
2023/09/12 05:27:19;;;;;;;5.93;5.22;;;;;;;;;;5099181;28;20020;-71
2023/09/12 05:29:44;;;;;;;6.57;5.20;;;;;;;;;;5087272;28;20442;-71
2023/09/12 05:32:10;;;;;;;5.20;4.70;;;;;;;;;;5099491;28;20428;-72
2023/09/12 05:34:35;;;;;;;7.95;5.00;;;;;;;;;;5098608;28;20039;-71
2023/09/12 05:37:00;;;;;;;7.15;5.30;;;;;;;;;;5100793;28;20043;-72
2023/09/12 05:39:26;;;;;;;8.52;5.45;;;;;;;;;;5100886;28;20126;-71
2023/09/12 05:41:51;;;;;;;9.00;6.80;;;;;;;;;;5094303;28;20159;-73
2023/09/12 05:44:18;;;;;;;7.40;6.10;;;;;;;;;;5079937;28;20385;-72
2023/09/12 05:46:45;;;;;;;11.27;5.90;;;;;;;;;;5083879;28;20096;-71
2023/09/12 05:49:10;;;;;;;6.20;5.60;;;;;;;;;;5084053;28;20023;-70
2023/09/12 05:51:36;;;;;;;7.07;5.20;;;;;;;;;;5098524;27;20100;-70
2023/09/12 05:54:01;;;;;;;10.27;5.45;;;;;;;;;;5095460;28;20038;-70
2023/09/12 05:56:28;;;;;;;7.47;4.97;;;;;;;;;;5091750;28;20016;-74
2023/09/12 05:58:53;;;;;;;9.38;5.05;;;;;;;;;;5097683;28;20442;-71
2023/09/12 06:01:18;;;;;;;7.05;4.85;;;;;;;;;;5098123;28;20031;-71
2023/09/12 06:03:44;;;;;;;8.30;5.13;;;;;;;;;;5097809;28;20026;-70
2023/09/12 06:06:09;;;;;;;7.05;4.68;;;;;;;;;;5099197;28;20475;-71
2023/09/12 06:08:34;;;;;;;8.18;4.20;;;;;;;;;;5098241;28;20084;-70
2023/09/12 06:11:00;;;;;;;10.02;4.93;;;;;;;;;;5099090;27;20106;-73
2023/09/12 06:13:25;;;;;;;9.02;5.20;;;;;;;;;;5099257;28;20070;-71
2023/09/12 06:15:50;;;;;;;6.72;4.93;;;;;;;;;;5097748;28;20440;-75
2023/09/12 06:18:16;;;;;;;9.60;5.80;;;;;;;;;;5099285;28;20630;-73
2023/09/12 06:20:42;;;;;;;5.60;4.88;;;;;;;;;;5098756;28;20046;-72
2023/09/12 06:23:07;;;;;;;6.05;5.07;;;;;;;;;;5098145;28;20086;-71
2023/09/12 06:25:33;;;;;;;6.97;4.88;;;;;;;;;;5100263;28;20024;-72
2023/09/12 06:27:59;;;;;;;7.43;4.85;;;;;;;;;;5100264;28;20035;-71
2023/09/12 06:30:24;;;;;;;8.95;4.80;;;;;;;;;;5098132;28;20015;-72
2023/09/12 06:32:49;;;;;;;7.85;4.88;;;;;;;;;;5099708;28;20023;-75
2023/09/12 06:35:15;;;;;;;8.23;4.43;;;;;;;;;;5100320;28;20510;-72
2023/09/12 06:37:40;;;;;;;8.07;4.95;;;;;;;;;;5099067;28;20030;-72
2023/09/12 06:40:06;;;;;;;6.75;4.45;;;;;;;;;;5099114;28;21331;-73
2023/09/12 06:42:32;;;;;;;7.18;3.95;;;;;;;;;;5099242;28;20023;-72
2023/09/12 06:44:57;;;;;;;6.55;3.97;;;;;;;;;;5097770;28;20024;-72
2023/09/12 06:47:22;;;;;;;13.25;4.28;;;;;;;;;;5101865;28;20036;-72
2023/09/12 06:49:48;;;;;;;4.70;3.95;;;;;;;;;;5098693;28;20086;-72
2023/09/12 06:52:13;;;;;;;9.43;4.53;;;;;;;;;;5099112;28;20035;-72
2023/09/12 06:54:38;;;;;;;8.30;4.75;;;;;;;;;;5099978;28;20422;-73
2023/09/12 06:57:04;;;;;;;6.60;4.47;;;;;;;;;;5100480;28;20107;-71
2023/09/12 06:59:29;;;;;;;4.70;3.63;;;;;;;;;;5100324;28;20039;-75
2023/09/12 07:01:55;;;;;;;7.95;3.20;;;;;;;;;;5101959;28;20457;-72
2023/09/12 07:04:21;;;;;;;7.18;3.80;;;;;;;;;;5103834;28;20056;-75
2023/09/12 07:06:46;;;;;;;6.03;3.85;;;;;;;;;;5099059;28;20440;-75
2023/09/12 07:09:14;;;;;;;5.85;4.45;;;;;;;;;;5103258;28;20024;-72
2023/09/12 07:11:39;;;;;;;8.98;4.45;;;;;;;;;;5105965;28;20043;-72
2023/09/12 07:14:05;;;;;;;9.73;5.75;;;;;;;;;;5104705;28;20342;-74
2023/09/12 07:16:31;;;;;;;7.43;4.75;;;;;;;;;;5105816;28;20429;-72
2023/09/12 07:18:56;;;;;;;4.93;3.50;;;;;;;;;;5105178;28;20039;-74
2023/09/12 07:21:22;;;;;;;5.82;2.85;;;;;;;;;;5103980;28;20023;-72
2023/09/12 07:23:47;;;;;;;4.72;3.20;;;;;;;;;;5088054;28;21258;-72
2023/09/12 07:26:13;;;;;;;7.53;4.10;;;;;;;;;;5081556;28;20031;-75
2023/09/12 07:28:39;;;;;;;5.75;2.88;;;;;;;;;;5085375;27;20100;-74
2023/09/12 07:31:04;;;;;;;7.03;3.08;;;;;;;;;;5086069;28;20027;-73
2023/09/12 07:33:29;;;;;;;5.72;2.60;;;;;;;;;;5084977;28;20043;-76
2023/09/12 07:35:55;;;;;;;5.25;3.33;;;;;;;;;;5082725;28;20024;-74
2023/09/12 07:38:21;;;;;;;8.77;4.32;;;;;;;;;;5081765;28;20031;-73
2023/09/12 07:40:46;;;;;;;10.63;7.53;;;;;;;;;;5082531;28;20048;-73
2023/09/12 07:43:11;;;;;;;9.43;3.40;;;;;;;;;;5082374;28;20035;-72
2023/09/12 07:45:37;;;;;;;7.60;3.42;;;;;;;;;;5081509;28;20091;-72
2023/09/12 07:48:06;;;;;;;5.10;2.80;;;;;;;;;;5086834;28;20034;-74
2023/09/12 07:50:32;;;;;;;4.00;2.47;;;;;;;;;;5083811;28;20023;-74
2023/09/12 07:52:57;;;;;;;5.30;2.63;;;;;;;;;;5082851;27;20032;-74
2023/09/12 07:55:22;;;;;;;5.00;3.40;;;;;;;;;;5081332;28;20107;-74
2023/09/12 07:57:48;;;;;;;6.10;3.05;;;;;;;;;;5079981;28;20043;-74
2023/09/12 08:00:13;;;;;;;11.60;7.10;;;;;;;;;;5081625;28;20077;-75
2023/09/12 08:02:38;;;;;;;7.50;3.58;;;;;;;;;;5085147;28;20035;-75
2023/09/12 08:05:05;;;;;;;3.70;2.72;;;;;;;;;;5083765;28;20027;-75
2023/09/12 08:07:30;;;;;;;9.50;3.60;;;;;;;;;;5081963;28;20077;-75
2023/09/12 08:09:59;;;;;;;15.10;8.80;;;;;;;;;;5080303;28;20450;-74
2023/09/12 08:12:26;;;;;;;9.35;5.90;;;;;;;;;;5084440;28;20118;-74
2023/09/12 08:14:51;;;;;;;4.32;3.75;;;;;;;;;;5082472;28;20074;-74
2023/09/12 08:17:17;;;;;;;4.60;3.40;;;;;;;;;;5082829;28;20458;-74
2023/09/12 08:19:43;;;;;;;4.43;3.15;;;;;;;;;;5084304;28;20431;-73
2023/09/12 08:22:09;;;;;;;6.70;2.50;;;;;;;;;;5080546;28;20124;-73
2023/09/12 08:24:35;;;;;;;4.75;2.63;;;;;;;;;;5082312;28;20115;-76
2023/09/12 08:27:00;;;;;;;7.22;2.80;;;;;;;;;;5082814;28;20452;-75
2023/09/12 08:29:28;;;;;;;6.93;2.88;;;;;;;;;;5094919;28;20449;-74
2023/09/12 08:31:53;;;;;;;4.07;2.88;;;;;;;;;;5101408;28;20084;-75
2023/09/12 08:34:18;;;;;;;4.47;2.70;;;;;;;;;;5101887;28;20043;-75
2023/09/12 08:36:44;;;;;;;5.32;2.95;;;;;;;;;;5101950;28;20044;-75
2023/09/12 08:39:11;;;;;;;3.30;2.42;;;;;;;;;;5103294;28;20032;-77
2023/09/12 08:41:37;;;;;;;5.90;2.85;;;;;;;;;;5102485;28;20578;-77
2023/09/12 08:44:05;;;;;;;2.65;2.45;;;;;;;;;;5104104;28;20027;-75
2023/09/12 08:46:30;;;;;;;6.15;3.42;;;;;;;;;;5103208;28;20346;-75
2023/09/12 08:48:56;;;;;;;9.90;5.72;;;;;;;;;;5101061;28;20690;-76
2023/09/12 08:51:23;;;;;;;6.55;4.68;;;;;;;;;;5102552;28;20036;-76
2023/09/12 08:53:49;;;;;;;6.20;3.65;;;;;;;;;;5102363;28;20076;-76
2023/09/12 08:56:14;;;;;;;9.25;6.95;;;;;;;;;;5103089;28;20441;-75
2023/09/12 08:58:40;;;;;;;9.98;5.13;;;;;;;;;;5102929;28;20023;-77
2023/09/12 09:01:06;;;;;;;6.60;4.80;;;;;;;;;;5101239;28;20027;-78
2023/09/12 09:03:32;;;;;;;6.63;3.55;;;;;;;;;;5102756;28;20023;-75
2023/09/12 09:05:58;;;;;;;7.55;2.85;;;;;;;;;;5101866;28;20342;-75
2023/09/12 09:08:23;;;;;;;4.93;2.83;;;;;;;;;;5103097;28;20116;-76
2023/09/12 09:10:55;;;;;;;4.05;2.70;;;;;;;;;;5102534;28;20514;-77
2023/09/12 09:13:20;;;;;;;4.68;2.60;;;;;;;;;;5102299;27;20036;-77
2023/09/12 09:15:47;;;;;;;5.82;2.78;;;;;;;;;;5103631;27;20730;-77
2023/09/12 09:18:12;;;;;;;3.38;2.85;;;;;;;;;;5102561;28;20110;-75
2023/09/12 09:20:38;;;;;;;5.32;2.90;;;;;;;;;;5101217;28;20119;-76
2023/09/12 09:23:10;;;;;;;5.38;2.95;;;;;;;;;;5102503;28;20445;-75
2023/09/12 09:25:39;;;;;;;4.93;2.60;;;;;;;;;;5102182;28;20019;-75
2023/09/12 09:28:05;;;;;;;3.13;2.70;;;;;;;;;;5101621;28;20442;-75
2023/09/12 09:30:40;;;;;;;4.30;2.83;;;;;;;;;;5103556;28;20369;-75
2023/09/12 09:33:06;;;;;;;4.80;2.63;;;;;;;;;;5101787;28;20036;-76
2023/09/12 09:35:31;;;;;;;2.97;2.45;;;;;;;;;;5102176;28;20327;-77
2023/09/12 09:37:57;;;;;;;2.80;2.17;;;;;;;;;;5102732;28;20024;-77
2023/09/12 09:40:23;;;;;;;4.63;2.28;;;;;;;;;;5103272;28;20039;-76
2023/09/12 09:42:53;;;;;;;3.60;2.53;;;;;;;;;;5103741;28;20025;-76
2023/09/12 09:45:18;;;;;;;3.90;2.65;;;;;;;;;;5103271;28;20134;-76
2023/09/12 09:47:44;;;;;;;5.03;2.50;;;;;;;;;;5101281;27;20102;-77
2023/09/12 09:50:13;;;;;;;7.00;2.67;;;;;;;;;;5100094;28;20137;-76
2023/09/12 09:52:38;;;;;;;4.25;3.53;;;;;;;;;;5101714;28;20024;-75
2023/09/12 09:55:06;;;;;;;8.63;2.70;;;;;;;;;;5101914;28;20047;-77
2023/09/12 09:57:36;;;;;;;5.32;2.78;;;;;;;;;;5098985;28;20110;-76
2023/09/12 10:00:08;;;;;;;3.47;2.40;;;;;;;;;;5102258;28;20024;-76
2023/09/12 10:02:34;;;;;;;3.53;2.47;;;;;;;;;;5090615;28;20027;-76
2023/09/12 10:05:00;;;;;;;3.00;2.20;;;;;;;;;;5083443;28;20028;-77
2023/09/12 10:07:27;;;;;;;6.20;2.85;;;;;;;;;;5080796;28;20035;-77
2023/09/12 10:09:52;;;;;;;6.35;2.50;;;;;;;;;;5078092;28;20458;-77
2023/09/12 10:12:18;;;;;;;7.40;2.40;;;;;;;;;;5085093;28;20034;-75
2023/09/12 10:14:43;;;;;;;3.95;2.58;;;;;;;;;;5083417;28;20105;-76
2023/09/12 10:17:10;;;;;;;5.43;2.70;;;;;;;;;;5079390;28;20028;-75
2023/09/12 10:19:38;;;;;;;6.32;2.60;;;;;;;;;;5080523;28;20043;-76
2023/09/12 10:22:03;;;;;;;7.10;2.60;;;;;;;;;;5079667;28;20127;-76
2023/09/12 10:24:29;;;;;;;6.77;2.70;;;;;;;;;;5080244;28;20090;-76
2023/09/12 10:26:55;;;;;;;3.05;2.30;;;;;;;;;;5083131;28;20272;-76
2023/09/12 10:29:22;;;;;;;5.85;2.40;;;;;;;;;;5080462;28;20030;-76
2023/09/12 10:31:48;;;;;;;6.35;2.65;;;;;;;;;;5079136;28;20032;-76
2023/09/12 10:34:14;;;;;;;6.25;3.10;;;;;;;;;;5084413;28;20044;-75
2023/09/12 10:36:40;;;;;;;4.03;2.45;;;;;;;;;;5079827;28;20408;-77
2023/09/12 10:39:06;;;;;;;6.90;4.55;;;;;;;;;;5078090;28;20028;-76
2023/09/12 10:41:32;;;;;;;7.32;2.83;;;;;;;;;;5080137;28;20032;-76
2023/09/12 10:43:57;;;;;;;7.75;2.45;;;;;;;;;;5086410;28;20020;-74
2023/09/12 10:46:23;;;;;;;4.10;2.33;;;;;;;;;;5099382;28;20028;-75
2023/09/12 10:48:50;;;;;;;4.18;2.60;;;;;;;;;;5101760;28;20024;-76
2023/09/12 10:51:16;;;;;;;4.95;2.53;;;;;;;;;;5088220;28;20373;-75
2023/09/12 10:53:53;;;;;;;4.32;2.90;;;;;;;;;;5081039;28;20031;-77
2023/09/12 10:56:19;;;;;;;5.47;2.75;;;;;;;;;;5080409;28;20020;-76
2023/09/12 10:59:06;;;;;;;3.85;2.50;;;;;;;;;;5082177;28;20462;-77
2023/09/12 11:01:32;;;;;;;3.92;2.50;;;;;;;;;;5081434;28;20027;-77
2023/09/12 11:03:57;;;;;;;4.38;2.70;;;;;;;;;;5098883;28;20057;-75
2023/09/12 11:06:28;;;;;;;6.10;2.60;;;;;;;;;;5101849;28;20039;-77
2023/09/12 11:09:12;;;;;;;4.85;2.75;;;;;;;;;;5099156;28;20024;-77
2023/09/12 11:11:37;;;;;;;5.82;2.67;;;;;;;;;;5102117;28;20035;-77
2023/09/12 11:14:03;;;;;;;4.30;2.50;;;;;;;;;;5101830;28;20349;-76
2023/09/12 11:16:29;;;;;;;3.03;2.50;;;;;;;;;;5101750;28;20096;-76
2023/09/12 11:19:14;;;;;;;7.93;2.95;;;;;;;;;;5098693;28;20511;-77
2023/09/12 11:21:40;;;;;;;4.72;3.10;;;;;;;;;;5100274;28;20063;-77
2023/09/12 11:24:05;;;;;;;5.30;2.75;;;;;;;;;;5101048;28;20063;-77
2023/09/12 11:26:31;;;;;;;4.18;2.75;;;;;;;;;;5101260;28;20059;-78
2023/09/12 11:28:56;;;;;;;4.15;2.30;;;;;;;;;;5100648;28;20067;-76
2023/09/12 11:31:27;;;;;;;3.80;2.75;;;;;;;;;;5102111;28;20052;-76
2023/09/12 11:33:53;;;;;;;6.45;2.72;;;;;;;;;;5102004;28;20040;-76
2023/09/12 11:36:19;;;;;;;3.53;2.45;;;;;;;;;;5099002;28;20028;-77
2023/09/12 11:38:49;;;;;;;4.60;2.70;;;;;;;;;;5099066;28;20030;-77
2023/09/12 11:41:14;;;;;;;6.15;2.75;;;;;;;;;;5099372;28;20432;-77
2023/09/12 11:43:40;;;;;;;4.97;2.90;;;;;;;;;;5100657;28;20029;-78
2023/09/12 11:46:07;;;;;;;3.38;2.35;;;;;;;;;;5101305;28;20031;-77
2023/09/12 11:48:33;;;;;;;5.22;2.78;;;;;;;;;;5103483;27;20063;-79
2023/09/12 11:51:01;;;;;;;11.30;3.20;;;;;;;;;;5105038;28;20107;-75
2023/09/12 11:53:30;;;;;;;5.22;2.22;;;;;;;;;;5104087;28;20024;-77
2023/09/12 11:55:59;;;;;;;5.18;3.47;;;;;;;;;;5104108;28;20020;-78
2023/09/12 11:58:25;;;;;;;7.30;2.55;;;;;;;;;;5099911;28;20442;-76
2023/09/12 12:00:51;;;;;;;4.85;2.70;;;;;;;;;;5104922;28;20110;-78
2023/09/12 12:03:22;;;;;;;3.45;2.55;;;;;;;;;;5104336;28;20067;-79
2023/09/12 12:05:48;;;;;;;3.75;2.50;;;;;;;;;;5103836;28;20053;-76
2023/09/12 12:08:14;;;;;;;6.28;3.20;;;;;;;;;;5099176;28;20080;-78
2023/09/12 12:10:40;;;;;;;3.63;2.65;;;;;;;;;;5103773;28;20035;-78
2023/09/12 12:13:08;;;;;;;4.28;2.70;;;;;;;;;;5104200;28;20027;-76
2023/09/12 12:15:33;;;;;;;4.25;2.50;;;;;;;;;;5105026;28;20032;-78
2023/09/12 12:17:58;;;;;;;6.28;2.95;;;;;;;;;;5104571;28;20085;-77
2023/09/12 12:20:24;;;;;;;5.40;3.05;;;;;;;;;;5104695;28;20043;-80
2023/09/12 12:22:52;;;;;;;3.72;2.40;;;;;;;;;;5103187;28;20295;-77
2023/09/12 12:25:17;;;;;;;4.32;2.70;;;;;;;;;;5103275;28;20417;-80
2023/09/12 12:27:43;;;;;;;3.58;2.20;;;;;;;;;;5098417;28;20032;-78
2023/09/12 12:30:09;;;;;;;3.03;2.17;;;;;;;;;;5105431;28;20023;-78
2023/09/12 12:32:49;;;;;;;4.40;2.60;;;;;;;;;;5102219;27;20028;-77
2023/09/12 12:35:21;;;;;;;6.40;2.65;;;;;;;;;;5104425;28;20345;-78
2023/09/12 12:37:50;;;;;;;4.95;2.60;;;;;;;;;;5102189;28;20106;-80
2023/09/12 12:40:16;;;;;;;4.47;2.80;;;;;;;;;;5103964;28;20047;-78
2023/09/12 12:42:42;;;;;;;4.78;2.50;;;;;;;;;;5102775;28;20042;-79
2023/09/12 12:45:11;;;;;;;7.28;2.90;;;;;;;;;;5102798;28;20106;-78
2023/09/12 12:47:36;;;;;;;5.65;2.95;;;;;;;;;;5103534;28;20349;-78
2023/09/12 12:50:01;;;;;;;7.85;3.20;;;;;;;;;;5103362;28;20027;-78
2023/09/12 12:52:27;;;;;;;4.03;2.75;;;;;;;;;;5101920;28;20118;-78
2023/09/12 12:54:54;;;;;;;3.20;2.40;;;;;;;;;;5103147;28;20032;-80
2023/09/12 12:57:19;;;;;;;5.68;2.60;;;;;;;;;;5102317;28;20424;-77
2023/09/12 12:59:46;;;;;;;3.85;2.50;;;;;;;;;;5093708;28;20110;-76
2023/09/12 13:02:11;;;;;;;3.83;2.60;;;;;;;;;;5088470;28;20039;-77
2023/09/12 13:04:37;;;;;;;6.78;2.60;;;;;;;;;;5089463;28;20103;-81
2023/09/12 13:07:03;;;;;;;3.92;2.40;;;;;;;;;;5089575;28;20027;-78
2023/09/12 13:09:28;;;;;;;3.58;2.60;;;;;;;;;;5089626;28;20031;-77
2023/09/12 13:11:54;;;;;;;7.03;2.53;;;;;;;;;;5103849;28;20415;-76
2023/09/12 13:14:19;;;;;;;7.03;2.72;;;;;;;;;;5089647;28;20016;-81
2023/09/12 13:16:44;;;;;;;6.20;2.83;;;;;;;;;;5101058;28;20024;-77
2023/09/12 13:19:13;;;;;;;5.47;2.70;;;;;;;;;;5102681;28;20110;-78
2023/09/12 13:21:38;;;;;;;;;;;;;;;;;;5102984;28;20031;-77
2023/09/12 13:24:04;;;;;;;5.80;2.78;;;;;;;;;;5093322;28;19907;-77
2023/09/12 13:26:29;;;;;;;4.57;2.47;;;;;;;;;;5101897;28;20028;-74
2023/09/12 13:28:54;;;;;;;6.22;2.60;;;;;;;;;;5102974;28;20024;-75
2023/09/12 13:31:20;;;;;;;6.47;2.55;;;;;;;;;;5101987;28;20039;-74
2023/09/12 13:33:45;;;;;;;8.20;3.03;;;;;;;;;;5093663;28;20028;-75
2023/09/12 13:36:10;;;;;;;5.18;2.65;;;;;;;;;;5101083;27;20027;-76
2023/09/12 13:38:36;;;;;;;3.50;2.63;;;;;;;;;;5103433;28;20069;-77
2023/09/12 13:41:01;;;;;;;7.00;2.78;;;;;;;;;;5101539;28;20051;-77
2023/09/12 13:43:28;;;;;;;3.70;2.30;;;;;;;;;;5102737;28;20020;-77
2023/09/12 13:45:53;;;;;;;4.45;2.67;;;;;;;;;;5088878;28;20522;-81
2023/09/12 13:48:18;;;;;;;6.28;2.75;;;;;;;;;;5087667;28;20055;-77
2023/09/12 13:50:44;;;;;;;4.93;2.58;;;;;;;;;;5101717;28;20024;-77
2023/09/12 13:53:09;;;;;;;4.38;2.50;;;;;;;;;;5102861;28;20031;-78
2023/09/12 13:55:36;;;;;;;4.03;2.90;;;;;;;;;;5102520;28;20031;-77
2023/09/12 13:58:02;;;;;;;6.40;2.60;;;;;;;;;;5095454;28;21029;-78
2023/09/12 14:00:27;;;;;;;6.32;2.95;;;;;;;;;;5095118;28;20030;-78
2023/09/12 14:02:53;;;;;;;5.50;2.40;;;;;;;;;;5099708;27;20031;-76
2023/09/12 14:05:18;;;;;;;4.95;2.85;;;;;;;;;;5100827;28;20770;-77
2023/09/12 14:07:43;;;;;;;3.58;2.35;;;;;;;;;;5099077;28;20080;-77
2023/09/12 14:10:09;;;;;;;5.63;2.67;;;;;;;;;;5098499;28;20027;-79
2023/09/12 14:12:34;;;;;;;5.28;2.45;;;;;;;;;;5099993;28;20039;-78
2023/09/12 14:15:00;;;;;;;3.80;2.42;;;;;;;;;;5088994;28;20031;-77
2023/09/12 14:17:26;;;;;;;3.25;2.22;;;;;;;;;;5101246;28;20426;-78
2023/09/12 14:19:52;;;;;;;6.25;2.88;;;;;;;;;;5101649;28;20031;-74
2023/09/12 14:22:17;;;;;;;4.65;2.55;;;;;;;;;;5101523;28;20057;-77
2023/09/12 14:24:42;;;;;;;5.18;2.70;;;;;;;;;;5100939;28;20094;-78
2023/09/12 14:27:08;;;;;;;5.00;2.60;;;;;;;;;;5100172;28;20044;-77
2023/09/12 14:29:33;;;;;;;4.78;2.65;;;;;;;;;;5098266;28;20123;-76
2023/09/12 14:31:58;;;;;;;4.90;2.50;;;;;;;;;;5101374;28;20031;-80
2023/09/12 14:34:27;;;;;;;6.07;2.63;;;;;;;;;;5099683;28;20023;-75
2023/09/12 14:36:52;;;;;;;;;;;;;;;;;;5101876;28;20023;-76